sensor_id;sensor_type;location;lat;lon;timestamp;temperature;humidity
53520;DHT22;39397;53.204;5.778;2023-04-06T00:01:39;3.80;99.90
53520;DHT22;39397;53.204;5.778;2023-04-06T00:04:05;3.80;99.90
53520;DHT22;39397;53.204;5.778;2023-04-06T00:06:32;3.80;99.90
53520;DHT22;39397;53.204;5.778;2023-04-06T00:08:58;4.70;99.90
53520;DHT22;39397;53.204;5.778;2023-04-06T00:11:24;3.80;99.90
53520;DHT22;39397;53.204;5.778;2023-04-06T00:13:50;3.90;99.90
53520;DHT22;39397;53.204;5.778;2023-04-06T00:16:16;3.80;99.90
53520;DHT22;39397;53.204;5.778;2023-04-06T00:18:42;3.80;99.90
53520;DHT22;39397;53.204;5.778;2023-04-06T00:21:07;3.80;99.90
53520;DHT22;39397;53.204;5.778;2023-04-06T00:23:33;3.80;99.90
53520;DHT22;39397;53.204;5.778;2023-04-06T00:25:59;3.70;99.90
53520;DHT22;39397;53.204;5.778;2023-04-06T00:28:25;3.80;99.90
53520;DHT22;39397;53.204;5.778;2023-04-06T00:30:54;3.60;99.90
53520;DHT22;39397;53.204;5.778;2023-04-06T00:33:21;4.00;99.90
53520;DHT22;39397;53.204;5.778;2023-04-06T00:35:47;3.70;99.90
53520;DHT22;39397;53.204;5.778;2023-04-06T00:38:14;3.50;99.90
53520;DHT22;39397;53.204;5.778;2023-04-06T00:40:41;3.50;99.90
53520;DHT22;39397;53.204;5.778;2023-04-06T00:43:07;3.60;99.90
53520;DHT22;39397;53.204;5.778;2023-04-06T00:45:34;3.60;99.90
53520;DHT22;39397;53.204;5.778;2023-04-06T00:48:01;3.60;99.90
53520;DHT22;39397;53.204;5.778;2023-04-06T00:50:30;3.50;99.90
53520;DHT22;39397;53.204;5.778;2023-04-06T00:52:56;3.50;99.90
53520;DHT22;39397;53.204;5.778;2023-04-06T00:55:22;3.60;99.90
53520;DHT22;39397;53.204;5.778;2023-04-06T00:57:47;3.50;99.90
53520;DHT22;39397;53.204;5.778;2023-04-06T01:00:15;3.40;99.90
53520;DHT22;39397;53.204;5.778;2023-04-06T01:02:41;3.40;99.90
53520;DHT22;39397;53.204;5.778;2023-04-06T01:05:07;3.40;99.90
53520;DHT22;39397;53.204;5.778;2023-04-06T01:07:33;3.50;99.90
53520;DHT22;39397;53.204;5.778;2023-04-06T01:09:59;3.40;99.90
53520;DHT22;39397;53.204;5.778;2023-04-06T01:12:25;3.40;99.90
53520;DHT22;39397;53.204;5.778;2023-04-06T01:14:50;2.10;99.90
53520;DHT22;39397;53.204;5.778;2023-04-06T01:17:16;3.40;99.90
53520;DHT22;39397;53.204;5.778;2023-04-06T01:19:43;3.40;99.90
53520;DHT22;39397;53.204;5.778;2023-04-06T01:22:15;3.30;99.90
53520;DHT22;39397;53.204;5.778;2023-04-06T01:24:41;3.40;99.90
53520;DHT22;39397;53.204;5.778;2023-04-06T01:27:07;3.30;99.90
53520;DHT22;39397;53.204;5.778;2023-04-06T01:29:33;3.10;99.90
53520;DHT22;39397;53.204;5.778;2023-04-06T01:31:58;3.20;99.90
53520;DHT22;39397;53.204;5.778;2023-04-06T01:34:24;4.20;99.90
53520;DHT22;39397;53.204;5.778;2023-04-06T01:36:50;3.30;99.90
53520;DHT22;39397;53.204;5.778;2023-04-06T01:39:15;3.50;99.90
53520;DHT22;39397;53.204;5.778;2023-04-06T01:41:41;4.20;99.90
53520;DHT22;39397;53.204;5.778;2023-04-06T01:44:07;3.20;99.90
53520;DHT22;39397;53.204;5.778;2023-04-06T01:46:33;4.10;99.90
53520;DHT22;39397;53.204;5.778;2023-04-06T01:48:58;3.20;99.90
53520;DHT22;39397;53.204;5.778;2023-04-06T01:51:24;4.30;99.90
53520;DHT22;39397;53.204;5.778;2023-04-06T01:53:51;3.90;99.90
53520;DHT22;39397;53.204;5.778;2023-04-06T01:56:17;3.10;99.90
53520;DHT22;39397;53.204;5.778;2023-04-06T01:58:42;3.20;99.90
53520;DHT22;39397;53.204;5.778;2023-04-06T02:01:08;3.20;99.90
53520;DHT22;39397;53.204;5.778;2023-04-06T02:03:34;3.20;99.90
53520;DHT22;39397;53.204;5.778;2023-04-06T02:06:00;3.10;99.90
53520;DHT22;39397;53.204;5.778;2023-04-06T02:08:26;3.10;99.90
53520;DHT22;39397;53.204;5.778;2023-04-06T02:10:52;3.00;99.90
53520;DHT22;39397;53.204;5.778;2023-04-06T02:13:17;2.90;99.90
53520;DHT22;39397;53.204;5.778;2023-04-06T02:15:43;3.20;99.90
53520;DHT22;39397;53.204;5.778;2023-04-06T02:18:09;3.00;99.90
53520;DHT22;39397;53.204;5.778;2023-04-06T02:20:35;2.90;99.90
53520;DHT22;39397;53.204;5.778;2023-04-06T02:23:01;2.80;99.90
53520;DHT22;39397;53.204;5.778;2023-04-06T02:25:27;3.90;99.90
53520;DHT22;39397;53.204;5.778;2023-04-06T02:27:53;3.30;99.90
53520;DHT22;39397;53.204;5.778;2023-04-06T02:30:19;2.90;99.90
53520;DHT22;39397;53.204;5.778;2023-04-06T02:32:45;3.60;99.90
53520;DHT22;39397;53.204;5.778;2023-04-06T02:35:11;1.30;99.90
53520;DHT22;39397;53.204;5.778;2023-04-06T02:37:36;2.90;99.90
53520;DHT22;39397;53.204;5.778;2023-04-06T02:40:02;2.90;99.90
53520;DHT22;39397;53.204;5.778;2023-04-06T02:42:28;0.80;99.90
53520;DHT22;39397;53.204;5.778;2023-04-06T02:44:54;1.00;99.90
53520;DHT22;39397;53.204;5.778;2023-04-06T02:47:20;3.10;99.90
53520;DHT22;39397;53.204;5.778;2023-04-06T02:49:46;3.10;99.90
53520;DHT22;39397;53.204;5.778;2023-04-06T02:52:11;3.60;99.90
53520;DHT22;39397;53.204;5.778;2023-04-06T02:54:37;3.00;99.90
53520;DHT22;39397;53.204;5.778;2023-04-06T02:57:03;2.70;99.90
53520;DHT22;39397;53.204;5.778;2023-04-06T02:59:29;2.80;99.90
53520;DHT22;39397;53.204;5.778;2023-04-06T03:01:55;3.20;99.90
53520;DHT22;39397;53.204;5.778;2023-04-06T03:04:20;2.70;99.90
53520;DHT22;39397;53.204;5.778;2023-04-06T03:06:48;2.60;99.90
53520;DHT22;39397;53.204;5.778;2023-04-06T03:09:14;2.70;99.90
53520;DHT22;39397;53.204;5.778;2023-04-06T03:11:39;2.60;99.90
53520;DHT22;39397;53.204;5.778;2023-04-06T03:14:05;2.60;99.90
53520;DHT22;39397;53.204;5.778;2023-04-06T03:16:31;2.50;99.90
53520;DHT22;39397;53.204;5.778;2023-04-06T03:18:58;2.40;99.90
53520;DHT22;39397;53.204;5.778;2023-04-06T03:21:24;2.50;99.90
53520;DHT22;39397;53.204;5.778;2023-04-06T03:23:56;2.60;99.90
53520;DHT22;39397;53.204;5.778;2023-04-06T03:26:21;2.50;99.90
53520;DHT22;39397;53.204;5.778;2023-04-06T03:28:47;2.50;99.90
53520;DHT22;39397;53.204;5.778;2023-04-06T03:31:13;2.60;99.90
53520;DHT22;39397;53.204;5.778;2023-04-06T03:33:39;2.90;99.90
53520;DHT22;39397;53.204;5.778;2023-04-06T03:36:05;3.60;99.90
53520;DHT22;39397;53.204;5.778;2023-04-06T03:38:32;2.60;99.90
53520;DHT22;39397;53.204;5.778;2023-04-06T03:40:58;2.40;99.90
53520;DHT22;39397;53.204;5.778;2023-04-06T03:43:23;2.50;99.90
53520;DHT22;39397;53.204;5.778;2023-04-06T03:45:49;2.50;99.90
53520;DHT22;39397;53.204;5.778;2023-04-06T03:48:15;2.50;99.90
53520;DHT22;39397;53.204;5.778;2023-04-06T03:50:41;2.50;99.90
53520;DHT22;39397;53.204;5.778;2023-04-06T03:53:07;2.40;99.90
53520;DHT22;39397;53.204;5.778;2023-04-06T03:55:32;2.40;99.90
53520;DHT22;39397;53.204;5.778;2023-04-06T03:57:58;2.60;99.90
53520;DHT22;39397;53.204;5.778;2023-04-06T04:00:24;3.40;99.90
53520;DHT22;39397;53.204;5.778;2023-04-06T04:02:50;2.40;99.90
53520;DHT22;39397;53.204;5.778;2023-04-06T04:05:16;3.00;99.90
53520;DHT22;39397;53.204;5.778;2023-04-06T04:07:42;2.50;99.90
53520;DHT22;39397;53.204;5.778;2023-04-06T04:10:08;2.40;99.90
53520;DHT22;39397;53.204;5.778;2023-04-06T04:12:34;2.40;99.90
53520;DHT22;39397;53.204;5.778;2023-04-06T04:14:59;2.40;99.90
53520;DHT22;39397;53.204;5.778;2023-04-06T04:17:25;2.70;99.90
53520;DHT22;39397;53.204;5.778;2023-04-06T04:19:51;3.70;99.90
53520;DHT22;39397;53.204;5.778;2023-04-06T04:22:17;2.50;99.90
53520;DHT22;39397;53.204;5.778;2023-04-06T04:24:42;3.00;99.90
53520;DHT22;39397;53.204;5.778;2023-04-06T04:27:08;2.50;99.90
53520;DHT22;39397;53.204;5.778;2023-04-06T04:29:34;2.50;99.90
53520;DHT22;39397;53.204;5.778;2023-04-06T04:32:00;3.10;99.90
53520;DHT22;39397;53.204;5.778;2023-04-06T04:34:26;2.60;99.90
53520;DHT22;39397;53.204;5.778;2023-04-06T04:36:54;2.60;99.90
53520;DHT22;39397;53.204;5.778;2023-04-06T04:39:20;2.60;99.90
53520;DHT22;39397;53.204;5.778;2023-04-06T04:41:46;3.30;99.90
53520;DHT22;39397;53.204;5.778;2023-04-06T04:44:12;2.70;99.90
53520;DHT22;39397;53.204;5.778;2023-04-06T04:46:38;2.70;99.90
53520;DHT22;39397;53.204;5.778;2023-04-06T04:49:04;2.60;99.90
53520;DHT22;39397;53.204;5.778;2023-04-06T04:51:29;2.80;99.90
53520;DHT22;39397;53.204;5.778;2023-04-06T04:53:56;2.90;99.90
53520;DHT22;39397;53.204;5.778;2023-04-06T04:56:22;2.70;99.90
53520;DHT22;39397;53.204;5.778;2023-04-06T04:58:48;2.60;99.90
53520;DHT22;39397;53.204;5.778;2023-04-06T05:01:13;2.60;99.90
53520;DHT22;39397;53.204;5.778;2023-04-06T05:03:40;2.70;99.90
53520;DHT22;39397;53.204;5.778;2023-04-06T05:06:07;2.70;99.90
53520;DHT22;39397;53.204;5.778;2023-04-06T05:08:33;2.90;99.90
53520;DHT22;39397;53.204;5.778;2023-04-06T05:11:04;2.80;99.90
53520;DHT22;39397;53.204;5.778;2023-04-06T05:13:33;2.90;99.90
53520;DHT22;39397;53.204;5.778;2023-04-06T05:16:00;2.90;99.90
53520;DHT22;39397;53.204;5.778;2023-04-06T05:18:25;3.00;99.90
53520;DHT22;39397;53.204;5.778;2023-04-06T05:20:51;3.10;99.90
53520;DHT22;39397;53.204;5.778;2023-04-06T05:23:17;3.00;99.90
53520;DHT22;39397;53.204;5.778;2023-04-06T05:25:43;3.00;99.90
53520;DHT22;39397;53.204;5.778;2023-04-06T05:28:09;3.10;99.90
53520;DHT22;39397;53.204;5.778;2023-04-06T05:30:35;3.20;99.90
53520;DHT22;39397;53.204;5.778;2023-04-06T05:33:01;3.20;99.90
53520;DHT22;39397;53.204;5.778;2023-04-06T05:35:27;3.20;99.90
53520;DHT22;39397;53.204;5.778;2023-04-06T05:37:53;3.20;99.90
53520;DHT22;39397;53.204;5.778;2023-04-06T05:40:19;3.30;99.90
53520;DHT22;39397;53.204;5.778;2023-04-06T05:42:44;3.30;99.90
53520;DHT22;39397;53.204;5.778;2023-04-06T05:45:11;3.40;99.90
53520;DHT22;39397;53.204;5.778;2023-04-06T05:47:42;3.40;99.90
53520;DHT22;39397;53.204;5.778;2023-04-06T05:50:10;3.50;99.90
53520;DHT22;39397;53.204;5.778;2023-04-06T05:52:36;3.50;99.90
53520;DHT22;39397;53.204;5.778;2023-04-06T05:55:02;3.50;99.90
53520;DHT22;39397;53.204;5.778;2023-04-06T05:57:28;3.70;99.90
53520;DHT22;39397;53.204;5.778;2023-04-06T05:59:54;3.70;99.90
53520;DHT22;39397;53.204;5.778;2023-04-06T06:02:21;3.70;99.90
53520;DHT22;39397;53.204;5.778;2023-04-06T06:04:46;3.80;99.90
53520;DHT22;39397;53.204;5.778;2023-04-06T06:07:12;4.70;99.90
53520;DHT22;39397;53.204;5.778;2023-04-06T06:09:38;3.90;99.90
53520;DHT22;39397;53.204;5.778;2023-04-06T06:12:03;3.90;99.90
53520;DHT22;39397;53.204;5.778;2023-04-06T06:14:29;4.00;99.90
53520;DHT22;39397;53.204;5.778;2023-04-06T06:16:55;3.90;99.90
53520;DHT22;39397;53.204;5.778;2023-04-06T06:19:21;4.00;99.90
53520;DHT22;39397;53.204;5.778;2023-04-06T06:21:46;4.10;99.90
53520;DHT22;39397;53.204;5.778;2023-04-06T06:24:12;4.20;99.90
53520;DHT22;39397;53.204;5.778;2023-04-06T06:26:38;4.20;99.90
53520;DHT22;39397;53.204;5.778;2023-04-06T06:29:05;4.20;99.90
53520;DHT22;39397;53.204;5.778;2023-04-06T06:31:31;4.30;99.90
53520;DHT22;39397;53.204;5.778;2023-04-06T06:33:57;4.30;99.90
53520;DHT22;39397;53.204;5.778;2023-04-06T06:36:23;4.80;99.90
53520;DHT22;39397;53.204;5.778;2023-04-06T06:38:49;4.50;99.90
53520;DHT22;39397;53.204;5.778;2023-04-06T06:41:15;4.60;99.90
53520;DHT22;39397;53.204;5.778;2023-04-06T06:43:41;4.70;99.90
53520;DHT22;39397;53.204;5.778;2023-04-06T06:46:07;4.80;99.90
53520;DHT22;39397;53.204;5.778;2023-04-06T06:48:33;5.00;99.90
53520;DHT22;39397;53.204;5.778;2023-04-06T06:50:58;5.10;99.90
53520;DHT22;39397;53.204;5.778;2023-04-06T06:53:24;5.20;99.90
53520;DHT22;39397;53.204;5.778;2023-04-06T06:55:50;5.50;99.90
53520;DHT22;39397;53.204;5.778;2023-04-06T06:58:19;5.70;99.90
53520;DHT22;39397;53.204;5.778;2023-04-06T07:00:48;5.90;99.90
53520;DHT22;39397;53.204;5.778;2023-04-06T07:03:14;6.10;99.90
53520;DHT22;39397;53.204;5.778;2023-04-06T07:05:45;6.20;99.90
53520;DHT22;39397;53.204;5.778;2023-04-06T07:08:16;6.30;99.90
53520;DHT22;39397;53.204;5.778;2023-04-06T07:10:41;6.40;99.90
53520;DHT22;39397;53.204;5.778;2023-04-06T07:13:07;6.50;99.90
53520;DHT22;39397;53.204;5.778;2023-04-06T07:15:33;6.60;99.90
53520;DHT22;39397;53.204;5.778;2023-04-06T07:17:58;6.70;99.90
53520;DHT22;39397;53.204;5.778;2023-04-06T07:20:25;6.80;99.90
53520;DHT22;39397;53.204;5.778;2023-04-06T07:22:50;6.80;99.90
53520;DHT22;39397;53.204;5.778;2023-04-06T07:25:16;6.70;99.90
53520;DHT22;39397;53.204;5.778;2023-04-06T07:27:42;6.90;99.90
53520;DHT22;39397;53.204;5.778;2023-04-06T07:30:08;7.20;99.90
53520;DHT22;39397;53.204;5.778;2023-04-06T07:32:34;7.10;99.90
53520;DHT22;39397;53.204;5.778;2023-04-06T07:35:01;7.00;99.90
53520;DHT22;39397;53.204;5.778;2023-04-06T07:37:27;7.20;99.90
53520;DHT22;39397;53.204;5.778;2023-04-06T07:39:52;7.10;99.80
53520;DHT22;39397;53.204;5.778;2023-04-06T07:42:18;7.10;99.70
53520;DHT22;39397;53.204;5.778;2023-04-06T07:44:44;7.20;99.70
53520;DHT22;39397;53.204;5.778;2023-04-06T07:47:10;7.20;99.60
53520;DHT22;39397;53.204;5.778;2023-04-06T07:49:36;7.30;99.70
53520;DHT22;39397;53.204;5.778;2023-04-06T07:52:02;7.30;99.60
53520;DHT22;39397;53.204;5.778;2023-04-06T07:54:28;7.40;99.60
53520;DHT22;39397;53.204;5.778;2023-04-06T07:56:54;7.50;99.60
53520;DHT22;39397;53.204;5.778;2023-04-06T07:59:19;7.60;99.60
53520;DHT22;39397;53.204;5.778;2023-04-06T08:01:45;7.60;99.50
53520;DHT22;39397;53.204;5.778;2023-04-06T08:04:11;7.90;99.40
53520;DHT22;39397;53.204;5.778;2023-04-06T08:06:37;8.10;99.10
53520;DHT22;39397;53.204;5.778;2023-04-06T08:09:03;8.20;98.90
53520;DHT22;39397;53.204;5.778;2023-04-06T08:11:29;8.30;98.70
53520;DHT22;39397;53.204;5.778;2023-04-06T08:13:56;8.60;98.80
53520;DHT22;39397;53.204;5.778;2023-04-06T08:16:22;8.60;98.60
53520;DHT22;39397;53.204;5.778;2023-04-06T08:18:48;8.90;98.20
53520;DHT22;39397;53.204;5.778;2023-04-06T08:21:14;9.10;97.80
53520;DHT22;39397;53.204;5.778;2023-04-06T08:23:40;9.30;97.60
53520;DHT22;39397;53.204;5.778;2023-04-06T08:26:06;9.50;97.40
53520;DHT22;39397;53.204;5.778;2023-04-06T08:28:31;9.70;97.10
53520;DHT22;39397;53.204;5.778;2023-04-06T08:31:03;9.70;96.60
53520;DHT22;39397;53.204;5.778;2023-04-06T08:33:29;9.90;96.60
53520;DHT22;39397;53.204;5.778;2023-04-06T08:35:55;9.90;96.40
53520;DHT22;39397;53.204;5.778;2023-04-06T08:38:20;10.00;96.40
53520;DHT22;39397;53.204;5.778;2023-04-06T08:40:46;10.00;96.10
53520;DHT22;39397;53.204;5.778;2023-04-06T08:43:14;10.10;96.00
53520;DHT22;39397;53.204;5.778;2023-04-06T08:45:41;10.30;95.80
53520;DHT22;39397;53.204;5.778;2023-04-06T08:48:08;10.20;95.60
53520;DHT22;39397;53.204;5.778;2023-04-06T08:50:34;10.30;95.60
53520;DHT22;39397;53.204;5.778;2023-04-06T08:53:01;10.30;95.50
53520;DHT22;39397;53.204;5.778;2023-04-06T08:55:27;10.40;95.40
53520;DHT22;39397;53.204;5.778;2023-04-06T08:57:53;10.40;95.50
53520;DHT22;39397;53.204;5.778;2023-04-06T09:00:20;10.40;95.30
53520;DHT22;39397;53.204;5.778;2023-04-06T09:02:47;10.80;95.30
53520;DHT22;39397;53.204;5.778;2023-04-06T09:05:14;10.60;95.30
53520;DHT22;39397;53.204;5.778;2023-04-06T09:07:40;10.60;95.10
53520;DHT22;39397;53.204;5.778;2023-04-06T09:10:07;10.80;95.00
53520;DHT22;39397;53.204;5.778;2023-04-06T09:12:34;11.00;94.50
53520;DHT22;39397;53.204;5.778;2023-04-06T09:15:00;11.00;94.30
53520;DHT22;39397;53.204;5.778;2023-04-06T09:17:31;11.10;94.20
53520;DHT22;39397;53.204;5.778;2023-04-06T09:20:00;11.30;93.60
53520;DHT22;39397;53.204;5.778;2023-04-06T09:22:36;11.40;94.20
53520;DHT22;39397;53.204;5.778;2023-04-06T09:25:02;11.50;94.00
53520;DHT22;39397;53.204;5.778;2023-04-06T09:27:33;11.60;93.60
53520;DHT22;39397;53.204;5.778;2023-04-06T09:30:06;11.60;93.30
53520;DHT22;39397;53.204;5.778;2023-04-06T09:32:32;11.70;93.00
53520;DHT22;39397;53.204;5.778;2023-04-06T09:35:08;11.70;92.80
53520;DHT22;39397;53.204;5.778;2023-04-06T09:37:34;11.70;93.10
53520;DHT22;39397;53.204;5.778;2023-04-06T09:40:04;11.70;92.60
53520;DHT22;39397;53.204;5.778;2023-04-06T09:42:31;11.80;92.50
53520;DHT22;39397;53.204;5.778;2023-04-06T09:44:57;11.70;92.40
53520;DHT22;39397;53.204;5.778;2023-04-06T09:47:24;11.70;92.60
53520;DHT22;39397;53.204;5.778;2023-04-06T09:49:55;11.80;92.50
53520;DHT22;39397;53.204;5.778;2023-04-06T09:52:27;11.90;92.40
53520;DHT22;39397;53.204;5.778;2023-04-06T09:55:00;12.00;91.50
53520;DHT22;39397;53.204;5.778;2023-04-06T09:57:32;12.20;92.30
53520;DHT22;39397;53.204;5.778;2023-04-06T10:00:07;12.10;91.80
53520;DHT22;39397;53.204;5.778;2023-04-06T10:02:59;12.30;90.90
53520;DHT22;39397;53.204;5.778;2023-04-06T10:05:42;12.40;91.70
53520;DHT22;39397;53.204;5.778;2023-04-06T10:08:10;12.40;90.40
53520;DHT22;39397;53.204;5.778;2023-04-06T10:10:36;12.50;91.10
53520;DHT22;39397;53.204;5.778;2023-04-06T10:13:03;12.60;91.00
53520;DHT22;39397;53.204;5.778;2023-04-06T10:15:30;12.60;90.60
53520;DHT22;39397;53.204;5.778;2023-04-06T10:18:00;12.60;90.70
53520;DHT22;39397;53.204;5.778;2023-04-06T10:23:13;12.80;91.00
53520;DHT22;39397;53.204;5.778;2023-04-06T10:25:56;13.00;90.20
53520;DHT22;39397;53.204;5.778;2023-04-06T10:28:23;13.10;91.00
53520;DHT22;39397;53.204;5.778;2023-04-06T10:30:48;13.40;90.60
53520;DHT22;39397;53.204;5.778;2023-04-06T10:33:19;13.50;90.30
53520;DHT22;39397;53.204;5.778;2023-04-06T10:35:46;13.60;90.40
53520;DHT22;39397;53.204;5.778;2023-04-06T10:38:12;13.70;90.00
53520;DHT22;39397;53.204;5.778;2023-04-06T10:40:41;13.90;89.60
53520;DHT22;39397;53.204;5.778;2023-04-06T10:43:22;14.00;89.40
53520;DHT22;39397;53.204;5.778;2023-04-06T10:46:00;13.80;89.40
53520;DHT22;39397;53.204;5.778;2023-04-06T10:48:39;13.80;88.80
53520;DHT22;39397;53.204;5.778;2023-04-06T10:51:16;13.80;89.10
53520;DHT22;39397;53.204;5.778;2023-04-06T10:53:43;13.70;87.60
53520;DHT22;39397;53.204;5.778;2023-04-06T10:56:10;13.80;88.30
53520;DHT22;39397;53.204;5.778;2023-04-06T10:58:54;13.90;88.30
53520;DHT22;39397;53.204;5.778;2023-04-06T11:01:24;13.90;87.40
53520;DHT22;39397;53.204;5.778;2023-04-06T11:03:53;14.10;88.70
53520;DHT22;39397;53.204;5.778;2023-04-06T11:06:29;14.00;88.10
53520;DHT22;39397;53.204;5.778;2023-04-06T11:08:57;14.00;88.80
53520;DHT22;39397;53.204;5.778;2023-04-06T11:11:25;14.00;88.80
53520;DHT22;39397;53.204;5.778;2023-04-06T11:13:59;14.00;88.70
53520;DHT22;39397;53.204;5.778;2023-04-06T11:21:40;14.00;86.50
53520;DHT22;39397;53.204;5.778;2023-04-06T11:29:07;14.20;86.20
53520;DHT22;39397;53.204;5.778;2023-04-06T11:31:44;14.20;87.00
53520;DHT22;39397;53.204;5.778;2023-04-06T11:34:12;14.20;87.30
53520;DHT22;39397;53.204;5.778;2023-04-06T11:36:42;14.60;87.60
53520;DHT22;39397;53.204;5.778;2023-04-06T11:39:08;14.20;87.50
53520;DHT22;39397;53.204;5.778;2023-04-06T11:41:34;14.20;87.40
53520;DHT22;39397;53.204;5.778;2023-04-06T11:44:03;14.30;87.20
53520;DHT22;39397;53.204;5.778;2023-04-06T11:46:29;14.30;87.80
53520;DHT22;39397;53.204;5.778;2023-04-06T11:48:59;14.30;87.80
53520;DHT22;39397;53.204;5.778;2023-04-06T11:51:26;14.30;88.50
53520;DHT22;39397;53.204;5.778;2023-04-06T11:53:52;14.20;88.50
53520;DHT22;39397;53.204;5.778;2023-04-06T11:56:26;14.40;88.80
53520;DHT22;39397;53.204;5.778;2023-04-06T11:58:56;14.50;89.10
53520;DHT22;39397;53.204;5.778;2023-04-06T12:01:22;14.40;88.30
53520;DHT22;39397;53.204;5.778;2023-04-06T12:03:49;14.50;89.90
53520;DHT22;39397;53.204;5.778;2023-04-06T12:06:15;14.60;90.10
53520;DHT22;39397;53.204;5.778;2023-04-06T12:08:41;14.60;90.00
53520;DHT22;39397;53.204;5.778;2023-04-06T12:11:07;14.60;90.00
53520;DHT22;39397;53.204;5.778;2023-04-06T12:13:32;14.50;90.30
53520;DHT22;39397;53.204;5.778;2023-04-06T12:15:58;14.60;90.60
53520;DHT22;39397;53.204;5.778;2023-04-06T12:18:24;14.50;90.60
53520;DHT22;39397;53.204;5.778;2023-04-06T12:20:51;12.40;90.20
53520;DHT22;39397;53.204;5.778;2023-04-06T12:23:18;14.50;91.00
53520;DHT22;39397;53.204;5.778;2023-04-06T12:25:44;14.40;91.40
53520;DHT22;39397;53.204;5.778;2023-04-06T12:28:10;14.30;91.50
53520;DHT22;39397;53.204;5.778;2023-04-06T12:30:35;14.20;91.60
53520;DHT22;39397;53.204;5.778;2023-04-06T12:33:01;15.10;91.90
53520;DHT22;39397;53.204;5.778;2023-04-06T12:35:27;14.10;91.90
53520;DHT22;39397;53.204;5.778;2023-04-06T12:37:53;14.00;92.20
53520;DHT22;39397;53.204;5.778;2023-04-06T12:40:19;13.90;92.20
53520;DHT22;39397;53.204;5.778;2023-04-06T12:42:45;13.90;92.40
53520;DHT22;39397;53.204;5.778;2023-04-06T12:45:12;13.90;92.50
53520;DHT22;39397;53.204;5.778;2023-04-06T12:47:38;13.90;92.90
53520;DHT22;39397;53.204;5.778;2023-04-06T12:50:06;14.00;93.60
53520;DHT22;39397;53.204;5.778;2023-04-06T12:52:32;13.90;94.20
53520;DHT22;39397;53.204;5.778;2023-04-06T12:55:03;13.90;94.80
53520;DHT22;39397;53.204;5.778;2023-04-06T12:57:30;13.70;94.40
53520;DHT22;39397;53.204;5.778;2023-04-06T12:59:57;13.60;95.20
53520;DHT22;39397;53.204;5.778;2023-04-06T13:02:23;13.60;95.10
53520;DHT22;39397;53.204;5.778;2023-04-06T13:04:49;13.50;95.20
53520;DHT22;39397;53.204;5.778;2023-04-06T13:07:15;13.40;95.30
53520;DHT22;39397;53.204;5.778;2023-04-06T13:09:41;13.20;95.70
53520;DHT22;39397;53.204;5.778;2023-04-06T13:12:07;13.10;96.20
53520;DHT22;39397;53.204;5.778;2023-04-06T13:14:33;12.90;96.40
53520;DHT22;39397;53.204;5.778;2023-04-06T13:16:59;12.70;96.70
53520;DHT22;39397;53.204;5.778;2023-04-06T13:19:25;12.50;96.90
53520;DHT22;39397;53.204;5.778;2023-04-06T13:21:52;12.30;97.30
53520;DHT22;39397;53.204;5.778;2023-04-06T13:24:17;12.20;97.60
53520;DHT22;39397;53.204;5.778;2023-04-06T13:26:45;12.00;97.90
53520;DHT22;39397;53.204;5.778;2023-04-06T13:29:11;11.70;98.40
53520;DHT22;39397;53.204;5.778;2023-04-06T13:31:36;11.60;99.40
53520;DHT22;39397;53.204;5.778;2023-04-06T13:34:03;11.60;99.90
53520;DHT22;39397;53.204;5.778;2023-04-06T13:36:29;11.50;99.90
53520;DHT22;39397;53.204;5.778;2023-04-06T13:38:55;11.50;99.90
53520;DHT22;39397;53.204;5.778;2023-04-06T13:41:22;11.50;99.90
53520;DHT22;39397;53.204;5.778;2023-04-06T13:43:48;11.30;99.90
53520;DHT22;39397;53.204;5.778;2023-04-06T13:46:15;11.20;99.90
53520;DHT22;39397;53.204;5.778;2023-04-06T13:48:42;11.10;99.90
53520;DHT22;39397;53.204;5.778;2023-04-06T13:51:12;11.20;99.90
53520;DHT22;39397;53.204;5.778;2023-04-06T13:53:40;11.30;99.90
53520;DHT22;39397;53.204;5.778;2023-04-06T13:56:07;11.20;99.90
53520;DHT22;39397;53.204;5.778;2023-04-06T13:58:33;11.10;99.90
53520;DHT22;39397;53.204;5.778;2023-04-06T14:01:07;11.10;99.90
53520;DHT22;39397;53.204;5.778;2023-04-06T14:03:35;11.00;99.90
53520;DHT22;39397;53.204;5.778;2023-04-06T14:06:01;10.90;99.90
53520;DHT22;39397;53.204;5.778;2023-04-06T14:08:27;11.00;99.90
53520;DHT22;39397;53.204;5.778;2023-04-06T14:10:52;10.90;99.90
53520;DHT22;39397;53.204;5.778;2023-04-06T14:13:19;10.60;99.90
53520;DHT22;39397;53.204;5.778;2023-04-06T14:15:45;10.70;99.90
53520;DHT22;39397;53.204;5.778;2023-04-06T14:18:11;10.50;99.90
53520;DHT22;39397;53.204;5.778;2023-04-06T14:20:37;10.50;99.90
53520;DHT22;39397;53.204;5.778;2023-04-06T14:23:03;10.40;99.90
53520;DHT22;39397;53.204;5.778;2023-04-06T14:25:29;10.40;99.90
53520;DHT22;39397;53.204;5.778;2023-04-06T14:27:59;10.20;99.90
53520;DHT22;39397;53.204;5.778;2023-04-06T14:30:26;10.20;99.90
53520;DHT22;39397;53.204;5.778;2023-04-06T14:32:53;10.30;99.90
53520;DHT22;39397;53.204;5.778;2023-04-06T14:35:22;10.20;99.90
53520;DHT22;39397;53.204;5.778;2023-04-06T14:37:47;10.10;99.90
53520;DHT22;39397;53.204;5.778;2023-04-06T14:40:14;10.00;99.90
53520;DHT22;39397;53.204;5.778;2023-04-06T14:42:40;10.00;99.90
53520;DHT22;39397;53.204;5.778;2023-04-06T14:45:06;9.90;99.90
53520;DHT22;39397;53.204;5.778;2023-04-06T14:47:32;9.80;99.90
53520;DHT22;39397;53.204;5.778;2023-04-06T14:49:58;9.70;99.90
53520;DHT22;39397;53.204;5.778;2023-04-06T14:52:23;9.70;99.90
53520;DHT22;39397;53.204;5.778;2023-04-06T14:54:49;9.60;99.90
53520;DHT22;39397;53.204;5.778;2023-04-06T14:57:15;9.60;99.90
53520;DHT22;39397;53.204;5.778;2023-04-06T14:59:41;9.50;99.90
53520;DHT22;39397;53.204;5.778;2023-04-06T15:02:07;9.60;99.90
53520;DHT22;39397;53.204;5.778;2023-04-06T15:04:34;9.70;99.90
53520;DHT22;39397;53.204;5.778;2023-04-06T15:07:01;9.50;99.90
53520;DHT22;39397;53.204;5.778;2023-04-06T15:09:28;9.70;99.90
53520;DHT22;39397;53.204;5.778;2023-04-06T15:11:57;9.40;99.90
53520;DHT22;39397;53.204;5.778;2023-04-06T15:14:23;9.00;99.90
53520;DHT22;39397;53.204;5.778;2023-04-06T15:16:49;9.50;99.90
53520;DHT22;39397;53.204;5.778;2023-04-06T15:19:14;9.50;99.90
53520;DHT22;39397;53.204;5.778;2023-04-06T15:21:40;9.40;99.90
53520;DHT22;39397;53.204;5.778;2023-04-06T15:24:06;9.40;99.90
53520;DHT22;39397;53.204;5.778;2023-04-06T15:26:35;9.40;99.90
53520;DHT22;39397;53.204;5.778;2023-04-06T15:29:01;9.50;99.90
53520;DHT22;39397;53.204;5.778;2023-04-06T15:31:26;9.40;99.90
53520;DHT22;39397;53.204;5.778;2023-04-06T15:33:52;9.50;99.90
53520;DHT22;39397;53.204;5.778;2023-04-06T15:36:25;9.40;99.90
53520;DHT22;39397;53.204;5.778;2023-04-06T15:38:52;10.10;99.90
53520;DHT22;39397;53.204;5.778;2023-04-06T15:41:17;9.30;99.90
53520;DHT22;39397;53.204;5.778;2023-04-06T15:43:43;9.20;99.90
53520;DHT22;39397;53.204;5.778;2023-04-06T15:46:09;9.20;99.90
53520;DHT22;39397;53.204;5.778;2023-04-06T15:48:35;9.20;99.90
53520;DHT22;39397;53.204;5.778;2023-04-06T15:51:00;9.20;99.90